createdAt,value
2019-05-06T00:00:58.737Z,8.93
2019-05-06T00:03:24.303Z,8.17
2019-05-06T00:05:54.245Z,8.80
2019-05-06T00:08:23.683Z,9.00
2019-05-06T00:10:54.094Z,8.63
2019-05-06T00:13:24.031Z,8.50
2019-05-06T00:15:54.203Z,7.57
2019-05-06T00:18:24.422Z,8.27
2019-05-06T00:20:54.690Z,8.47
2019-05-06T00:23:24.924Z,8.30
2019-05-06T00:26:06.858Z,8.70
2019-05-06T00:28:36.775Z,7.17
2019-05-06T00:31:16.332Z,7.93
2019-05-06T00:33:44.306Z,8.83
2019-05-06T00:36:14.134Z,8.83
2019-05-06T00:38:44.816Z,7.90
2019-05-06T00:41:17.796Z,8.07
2019-05-06T00:43:46.100Z,8.60
2019-05-06T00:46:14.639Z,9.20
2019-05-06T00:48:44.797Z,10.73
2019-05-06T00:51:13.533Z,9.30
2019-05-06T00:53:43.757Z,9.27
2019-05-06T00:56:14.002Z,8.83
2019-05-06T00:58:43.604Z,8.93
2019-05-06T01:01:24.068Z,8.40
2019-05-06T01:03:44.129Z,8.90
2019-05-06T01:06:14.104Z,9.43
2019-05-06T01:08:43.909Z,9.20
2019-05-06T01:11:12.017Z,8.87
2019-05-06T01:13:47.713Z,9.37
2019-05-06T01:16:17.646Z,9.47
2019-05-06T01:18:45.903Z,9.30
2019-05-06T01:21:14.656Z,9.50
2019-05-06T01:23:43.908Z,8.93
2019-05-06T01:26:15.013Z,8.80
2019-05-06T01:28:43.631Z,8.17
2019-05-06T01:31:13.848Z,9.50
2019-05-06T01:33:41.890Z,8.37
2019-05-06T01:36:10.188Z,8.30
2019-05-06T01:38:45.938Z,8.13
2019-05-06T01:41:21.700Z,9.10
2019-05-06T01:43:49.957Z,8.93
2019-05-06T01:46:18.239Z,9.17
2019-05-06T01:48:49.618Z,9.30
2019-05-06T01:51:19.982Z,9.43
2019-05-06T01:53:48.684Z,9.57
2019-05-06T01:56:16.949Z,9.50
2019-05-06T01:58:45.310Z,10.40
2019-05-06T02:01:14.932Z,8.80
2019-05-06T02:03:44.221Z,8.50
2019-05-06T02:06:14.123Z,8.90
2019-05-06T02:08:44.554Z,10.30
2019-05-06T02:11:14.670Z,9.43
2019-05-06T02:13:44.184Z,8.53
2019-05-06T02:16:14.657Z,8.03
2019-05-06T02:18:44.857Z,8.43
2019-05-06T02:21:29.475Z,8.23
2019-05-06T02:24:04.132Z,8.20
2019-05-06T02:26:34.204Z,8.07
2019-05-06T02:29:04.268Z,9.10
2019-05-06T02:31:50.559Z,9.13
2019-05-06T02:34:26.304Z,9.17
2019-05-06T02:36:58.879Z,9.00
2019-05-06T02:39:27.144Z,8.03
2019-05-06T02:41:55.396Z,8.27
2019-05-06T02:44:24.108Z,8.20
2019-05-06T02:46:54.139Z,8.77
2019-05-06T02:49:32.769Z,9.80
2019-05-06T02:52:02.812Z,11.63
2019-05-06T02:54:29.818Z,10.70
2019-05-06T02:56:58.083Z,8.90
2019-05-06T02:59:26.366Z,8.77
2019-05-06T03:01:54.697Z,8.57
2019-05-06T03:04:23.685Z,8.80
2019-05-06T03:06:53.241Z,8.97
2019-05-06T03:09:23.354Z,9.13
2019-05-06T03:11:53.921Z,9.73
2019-05-06T03:14:23.351Z,9.67
2019-05-06T03:16:53.890Z,9.60
2019-05-06T03:19:24.046Z,8.50
2019-05-06T03:21:54.630Z,7.53
2019-05-06T03:24:24.861Z,8.50
2019-05-06T03:26:56.965Z,8.13
2019-05-06T03:29:25.266Z,7.90
2019-05-06T03:31:56.381Z,7.07
2019-05-06T03:34:48.750Z,7.40
2019-05-06T03:36:56.082Z,8.43
2019-05-06T03:39:23.838Z,8.17
2019-05-06T03:41:53.728Z,8.57
2019-05-06T03:44:23.967Z,7.93
2019-05-06T03:47:08.948Z,7.30
2019-05-06T03:49:38.938Z,7.73
2019-05-06T03:52:07.271Z,7.13
2019-05-06T03:54:35.563Z,7.93
2019-05-06T03:57:04.367Z,7.40
2019-05-06T03:59:33.492Z,6.97
2019-05-06T04:02:04.910Z,7.80
2019-05-06T04:04:33.270Z,7.17
2019-05-06T04:07:03.419Z,7.90
2019-05-06T04:09:33.505Z,8.70
2019-05-06T04:12:03.504Z,7.60
2019-05-06T04:14:33.817Z,7.43
2019-05-06T04:17:13.059Z,7.83
2019-05-06T04:19:43.809Z,8.97
2019-05-06T04:22:28.629Z,8.00
2019-05-06T04:24:58.599Z,7.97
2019-05-06T04:27:33.289Z,8.10
2019-05-06T04:30:00.359Z,7.50
2019-05-06T04:32:28.612Z,7.37
2019-05-06T04:34:56.919Z,7.33
2019-05-06T04:37:25.184Z,7.43
2019-05-06T04:39:53.724Z,6.83
2019-05-06T04:42:26.322Z,6.87
2019-05-06T04:44:53.145Z,6.70
2019-05-06T04:47:24.154Z,7.33
2019-05-06T04:49:53.240Z,7.20
2019-05-06T04:52:22.880Z,6.93
2019-05-06T04:54:53.415Z,7.63
2019-05-06T04:57:23.856Z,10.63
2019-05-06T04:59:54.150Z,10.07
2019-05-06T05:02:23.047Z,10.80
2019-05-06T05:04:52.931Z,11.17
2019-05-06T05:07:22.451Z,14.00
2019-05-06T05:09:53.509Z,13.53
2019-05-06T05:12:26.138Z,12.07
2019-05-06T05:15:12.280Z,12.87
2019-05-06T05:17:42.198Z,13.50
2019-05-06T05:20:12.671Z,13.13
2019-05-06T05:22:42.365Z,13.57
2019-05-06T05:25:12.185Z,14.40
2019-05-06T05:27:42.163Z,13.97
2019-05-06T05:30:12.387Z,12.70
2019-05-06T05:32:42.648Z,13.90
2019-05-06T05:35:12.548Z,13.17
2019-05-06T05:37:41.936Z,12.80
2019-05-06T05:40:10.438Z,13.93
2019-05-06T05:42:46.508Z,12.77
2019-05-06T05:45:14.759Z,13.23
2019-05-06T05:47:43.215Z,12.40
2019-05-06T05:50:13.353Z,11.93
2019-05-06T05:52:42.559Z,12.07
2019-05-06T05:55:12.145Z,11.27
2019-05-06T05:57:43.095Z,10.17
2019-05-06T06:00:12.958Z,11.43
2019-05-06T06:02:43.669Z,10.13
2019-05-06T06:05:12.411Z,10.73
2019-05-06T06:07:42.228Z,11.00
2019-05-06T06:10:22.563Z,10.83
2019-05-06T06:12:52.803Z,10.63
2019-05-06T06:15:22.805Z,10.20
2019-05-06T06:18:02.976Z,11.00
2019-05-06T06:20:52.754Z,11.03
2019-05-06T06:23:41.984Z,10.77
2019-05-06T06:26:12.134Z,9.73
2019-05-06T06:28:42.419Z,9.77
2019-05-06T06:31:17.383Z,10.03
2019-05-06T06:33:45.805Z,9.07
2019-05-06T06:36:23.110Z,9.17
2019-05-06T06:38:53.164Z,9.07
2019-05-06T06:41:22.866Z,8.20
2019-05-06T06:43:52.879Z,8.13
2019-05-06T06:46:22.390Z,8.10
2019-05-06T06:48:52.616Z,8.60
2019-05-06T06:51:23.186Z,7.60
2019-05-06T06:53:52.828Z,9.57
2019-05-06T06:56:22.635Z,7.97
2019-05-06T06:58:52.546Z,8.97
2019-05-06T07:01:23.482Z,8.13
2019-05-06T07:03:53.570Z,8.50
2019-05-06T07:06:23.505Z,8.43
2019-05-06T07:08:51.866Z,7.50
2019-05-06T07:11:22.024Z,8.40
2019-05-06T07:13:53.191Z,8.10
2019-05-06T07:16:23.536Z,8.73
2019-05-06T07:18:52.609Z,8.47
2019-05-06T07:21:22.817Z,8.50
2019-05-06T07:23:52.997Z,10.13
2019-05-06T07:26:23.855Z,7.87
2019-05-06T07:28:52.669Z,6.63
2019-05-06T07:31:23.870Z,7.33
2019-05-06T07:33:52.225Z,6.90
2019-05-06T07:36:22.677Z,6.63
2019-05-06T07:38:52.690Z,6.00
2019-05-06T07:41:36.307Z,7.00
2019-05-06T07:44:05.796Z,6.83
2019-05-06T07:46:42.743Z,5.67
2019-05-06T07:49:12.613Z,6.37
2019-05-06T07:51:41.997Z,6.13
2019-05-06T07:54:12.216Z,6.20
2019-05-06T07:56:42.710Z,5.57
2019-05-06T07:59:12.573Z,5.23
2019-05-06T08:01:43.478Z,5.77
2019-05-06T08:04:12.032Z,5.50
2019-05-06T08:06:42.476Z,24.67
2019-05-06T08:09:12.717Z,6.37
2019-05-06T08:11:42.292Z,6.87
2019-05-06T08:14:12.738Z,5.50
2019-05-06T08:16:53.112Z,5.17
2019-05-06T08:19:22.723Z,5.63
2019-05-06T08:21:52.624Z,5.03
2019-05-06T08:24:22.762Z,5.47
2019-05-06T08:26:52.197Z,5.90
2019-05-06T08:29:22.380Z,5.30
2019-05-06T08:31:52.407Z,5.23
2019-05-06T08:34:22.479Z,6.60
2019-05-06T08:36:53.373Z,5.37
2019-05-06T08:39:22.074Z,5.10
2019-05-06T08:41:50.364Z,20.70
2019-05-06T08:44:18.663Z,4.10
2019-05-06T08:46:46.914Z,4.90
2019-05-06T08:49:15.203Z,5.37
2019-05-06T08:51:52.913Z,4.70
2019-05-06T08:54:22.883Z,5.53
2019-05-06T08:56:52.325Z,3.70
2019-05-06T08:59:20.698Z,3.07
2019-05-06T09:01:56.626Z,4.30
2019-05-06T09:04:24.890Z,3.40
2019-05-06T09:06:53.636Z,3.13
2019-05-06T09:09:22.508Z,2.77
2019-05-06T09:11:53.251Z,3.13
2019-05-06T09:14:23.276Z,3.07
2019-05-06T09:16:54.221Z,3.13
2019-05-06T09:19:23.417Z,2.53
2019-05-06T09:21:53.359Z,2.60
2019-05-06T09:24:23.094Z,2.63
2019-05-06T09:26:56.205Z,2.43
2019-05-06T09:29:26.133Z,2.60
2019-05-06T09:31:56.035Z,3.07
2019-05-06T09:34:35.109Z,3.17
2019-05-06T09:37:17.216Z,2.67
2019-05-06T09:39:45.637Z,3.20
2019-05-06T09:42:14.110Z,2.73
2019-05-06T09:44:46.002Z,2.93
2019-05-06T09:47:15.884Z,2.90
2019-05-06T09:49:44.263Z,3.30
2019-05-06T09:52:13.125Z,3.53
2019-05-06T09:54:45.875Z,5.00
2019-05-06T09:57:22.095Z,4.17
2019-05-06T09:59:52.627Z,2.80
2019-05-06T10:02:23.083Z,3.00
2019-05-06T10:04:52.205Z,3.13
2019-05-06T10:07:22.541Z,3.30
2019-05-06T10:09:52.701Z,2.73
2019-05-06T10:12:20.771Z,3.00
2019-05-06T10:14:49.038Z,2.70
2019-05-06T10:17:17.342Z,3.40
2019-05-06T10:19:45.631Z,3.10
2019-05-06T10:22:13.978Z,3.00
2019-05-06T10:24:43.013Z,3.20
2019-05-06T10:27:12.262Z,3.33
2019-05-06T10:29:45.198Z,3.43
2019-05-06T10:32:17.666Z,3.70
2019-05-06T10:34:45.955Z,3.33
2019-05-06T10:37:21.859Z,3.17
2019-05-06T10:39:59.223Z,3.17
2019-05-06T10:42:32.484Z,2.80
2019-05-06T10:45:12.258Z,2.60
2019-05-06T10:47:42.220Z,2.70
2019-05-06T10:50:12.440Z,2.87
2019-05-06T10:52:58.073Z,2.57
2019-05-06T10:55:26.479Z,2.90
2019-05-06T10:57:54.762Z,2.77
2019-05-06T11:00:23.271Z,2.67
2019-05-06T11:03:14.411Z,2.90
2019-05-06T11:05:43.113Z,3.30
2019-05-06T11:08:11.134Z,3.23
2019-05-06T11:10:41.375Z,3.17
2019-05-06T11:13:09.591Z,3.40
2019-05-06T11:15:37.849Z,3.60
2019-05-06T11:18:06.128Z,4.03
2019-05-06T11:20:34.398Z,3.20
2019-05-06T11:23:02.853Z,3.50
2019-05-06T11:25:32.272Z,3.77
2019-05-06T11:28:02.765Z,3.37
2019-05-06T11:30:37.994Z,3.33
2019-05-06T11:33:13.073Z,3.27
2019-05-06T11:35:57.578Z,3.30
2019-05-06T11:38:25.884Z,3.23
2019-05-06T11:40:54.135Z,3.70
2019-05-06T11:43:22.849Z,3.50
2019-05-06T11:45:52.120Z,3.53
2019-05-06T11:48:22.306Z,3.20
2019-05-06T11:50:52.445Z,3.00
2019-05-06T11:53:22.950Z,3.10
2019-05-06T11:55:54.351Z,2.93
2019-05-06T11:58:42.729Z,2.77
2019-05-06T12:01:13.510Z,2.67
2019-05-06T12:03:42.682Z,2.53
2019-05-06T12:06:13.109Z,1.90
2019-05-06T12:08:43.120Z,2.37
2019-05-06T12:11:12.646Z,2.50
2019-05-06T12:13:42.595Z,2.47
2019-05-06T12:16:14.071Z,2.40
2019-05-06T12:18:42.252Z,2.90
2019-05-06T12:21:14.617Z,2.40
2019-05-06T12:23:44.339Z,2.50
2019-05-06T12:26:13.017Z,3.20
2019-05-06T12:28:43.205Z,2.80
2019-05-06T12:31:12.657Z,2.93
2019-05-06T12:33:42.793Z,2.90
2019-05-06T12:36:14.941Z,2.63
2019-05-06T12:39:06.395Z,3.13
2019-05-06T12:41:33.342Z,2.27
2019-05-06T12:44:03.103Z,2.63
2019-05-06T12:46:33.226Z,2.93
2019-05-06T12:49:03.111Z,2.70
2019-05-06T12:51:32.280Z,2.60
2019-05-06T12:54:03.336Z,2.23
2019-05-06T12:56:30.699Z,2.53
2019-05-06T12:58:58.974Z,2.90
2019-05-06T13:01:27.285Z,2.60
2019-05-06T13:03:55.557Z,3.17
2019-05-06T13:06:26.409Z,2.97
2019-05-06T13:09:01.301Z,2.80
2019-05-06T13:11:24.003Z,3.10
2019-05-06T13:13:59.737Z,2.77
2019-05-06T13:16:22.874Z,3.30
2019-05-06T13:18:54.167Z,2.90
2019-05-06T13:21:22.317Z,3.33
2019-05-06T13:23:52.399Z,3.20
2019-05-06T13:26:22.314Z,3.00
2019-05-06T13:28:53.201Z,3.10
2019-05-06T13:31:25.318Z,3.03
2019-05-06T13:33:54.582Z,3.03
2019-05-06T13:36:23.331Z,3.23
2019-05-06T13:38:56.654Z,3.73
2019-05-06T13:41:22.202Z,3.80
2019-05-06T13:43:54.080Z,4.00
2019-05-06T13:46:24.135Z,3.93
2019-05-06T13:48:57.606Z,3.60
2019-05-06T13:51:27.643Z,3.40
2019-05-06T13:53:56.013Z,3.77
2019-05-06T13:56:24.369Z,3.53
2019-05-06T13:58:52.739Z,4.40
2019-05-06T14:01:28.763Z,4.03
2019-05-06T14:03:57.049Z,4.33
2019-05-06T14:06:25.330Z,4.80
2019-05-06T14:08:53.660Z,5.00
2019-05-06T14:11:23.019Z,4.40
2019-05-06T14:13:52.939Z,4.47
2019-05-06T14:16:24.582Z,4.93
2019-05-06T14:18:53.440Z,5.33
2019-05-06T14:21:22.822Z,5.03
2019-05-06T14:23:51.253Z,6.23
2019-05-06T14:26:27.206Z,5.83
2019-05-06T14:29:02.180Z,6.00
2019-05-06T14:31:32.693Z,7.00
2019-05-06T14:34:01.129Z,7.20
2019-05-06T14:36:29.434Z,6.50
2019-05-06T14:38:57.729Z,6.60
2019-05-06T14:41:27.496Z,7.20
2019-05-06T14:43:55.898Z,7.33
2019-05-06T14:46:24.278Z,6.80
2019-05-06T14:48:53.475Z,6.70
2019-05-06T14:51:22.331Z,8.00
2019-05-06T14:53:52.999Z,8.43
2019-05-06T14:56:25.280Z,9.53
2019-05-06T14:59:08.659Z,10.87
2019-05-06T15:01:37.621Z,9.23
2019-05-06T15:04:05.884Z,9.27
2019-05-06T15:06:34.236Z,9.83
2019-05-06T15:09:03.766Z,8.33
2019-05-06T15:11:32.544Z,8.77
2019-05-06T15:14:03.473Z,8.80
2019-05-06T15:16:30.881Z,7.40
2019-05-06T15:18:59.150Z,6.77
2019-05-06T15:21:37.140Z,5.97
2019-05-06T15:23:57.463Z,7.47
2019-05-06T15:26:25.843Z,7.40
2019-05-06T15:28:54.119Z,7.07
2019-05-06T15:31:27.091Z,7.20
2019-05-06T15:33:57.003Z,6.27
2019-05-06T15:36:30.003Z,6.73
2019-05-06T15:38:58.263Z,6.87
2019-05-06T15:41:26.569Z,6.90
2019-05-06T15:43:54.916Z,7.33
2019-05-06T15:46:23.213Z,6.60
2019-05-06T15:48:52.942Z,6.07
2019-05-06T15:51:22.994Z,6.40
2019-05-06T15:53:52.955Z,6.77
2019-05-06T15:56:23.075Z,7.47
2019-05-06T15:58:51.509Z,7.17
2019-05-06T16:01:19.814Z,6.90
2019-05-06T16:03:48.074Z,7.67
2019-05-06T16:06:16.371Z,7.73
2019-05-06T16:08:44.668Z,7.70
2019-05-06T16:11:13.015Z,7.20
2019-05-06T16:13:42.118Z,7.63
2019-05-06T16:16:11.350Z,7.80
2019-05-06T16:18:39.610Z,8.30
2019-05-06T16:21:07.898Z,8.70
2019-05-06T16:23:37.810Z,8.30
2019-05-06T16:26:06.111Z,9.20
2019-05-06T16:28:34.389Z,7.93
2019-05-06T16:31:02.760Z,8.33
2019-05-06T16:33:32.950Z,8.33
2019-05-06T16:36:01.064Z,9.07
2019-05-06T16:38:29.353Z,8.00
2019-05-06T16:41:09.584Z,8.13
2019-05-06T16:43:27.644Z,7.93
2019-05-06T16:45:55.919Z,7.43
2019-05-06T16:48:24.206Z,7.50
2019-05-06T16:50:52.653Z,6.40
2019-05-06T16:53:22.920Z,6.80
2019-05-06T16:56:02.231Z,7.63
2019-05-06T16:58:32.941Z,8.30
2019-05-06T17:01:03.229Z,7.57
2019-05-06T17:03:36.241Z,8.53
2019-05-06T17:06:06.134Z,7.77
2019-05-06T17:08:36.459Z,8.07
2019-05-06T17:11:05.010Z,7.60
2019-05-06T17:13:34.746Z,8.50
2019-05-06T17:16:03.374Z,9.07
2019-05-06T17:18:32.986Z,7.90
2019-05-06T17:21:01.400Z,8.07
2019-05-06T17:23:31.877Z,8.23
2019-05-06T17:25:59.685Z,7.47
2019-05-06T17:28:47.799Z,6.67
2019-05-06T17:31:17.779Z,5.30
2019-05-06T17:33:47.696Z,5.33
2019-05-06T17:36:17.602Z,6.23
2019-05-06T17:38:47.534Z,6.30
2019-05-06T17:41:15.819Z,7.07
2019-05-06T17:43:44.317Z,6.60
2019-05-06T17:46:14.288Z,7.50
2019-05-06T17:48:59.305Z,7.47
2019-05-06T17:51:29.181Z,8.20
2019-05-06T17:54:02.037Z,7.07
2019-05-06T17:56:30.329Z,7.77
2019-05-06T17:58:58.703Z,7.73
2019-05-06T18:01:29.393Z,7.40
2019-05-06T18:03:57.680Z,6.57
2019-05-06T18:06:25.968Z,6.90
2019-05-06T18:08:54.224Z,7.17
2019-05-06T18:11:22.675Z,6.30
2019-05-06T18:13:52.128Z,6.30
2019-05-06T18:16:22.254Z,7.33
2019-05-06T18:18:52.276Z,8.20
2019-05-06T18:21:22.769Z,10.50
2019-05-06T18:23:52.284Z,11.33
2019-05-06T18:26:22.784Z,12.07
2019-05-06T18:28:52.610Z,12.53
2019-05-06T18:31:22.103Z,12.37
2019-05-06T18:33:52.620Z,13.50
2019-05-06T18:36:22.727Z,14.50
2019-05-06T18:38:52.605Z,15.03
2019-05-06T18:41:20.698Z,15.27
2019-05-06T18:43:48.999Z,16.03
2019-05-06T18:46:17.374Z,16.03
2019-05-06T18:48:45.628Z,15.77
2019-05-06T18:51:13.945Z,15.37
2019-05-06T18:53:42.343Z,15.07
2019-05-06T18:56:12.611Z,14.43
2019-05-06T18:58:42.753Z,14.83
2019-05-06T19:01:13.143Z,14.23
2019-05-06T19:03:43.050Z,15.03
2019-05-06T19:06:11.946Z,14.97
2019-05-06T19:08:53.866Z,14.37
2019-05-06T19:11:22.333Z,13.70
2019-05-06T19:13:52.504Z,15.47
2019-05-06T19:16:22.310Z,15.80
2019-05-06T19:18:52.182Z,14.43
2019-05-06T19:21:24.311Z,15.33
2019-05-06T19:23:51.948Z,15.37
2019-05-06T19:26:20.734Z,16.07
2019-05-06T19:28:49.054Z,14.97
2019-05-06T19:31:17.390Z,14.60
2019-05-06T19:33:45.691Z,14.13
2019-05-06T19:36:13.935Z,11.87
2019-05-06T19:38:42.514Z,12.40
2019-05-06T19:41:12.666Z,12.73
2019-05-06T19:43:40.906Z,12.80
2019-05-06T19:46:09.186Z,13.40
2019-05-06T19:48:37.556Z,13.30
2019-05-06T19:51:05.830Z,12.13
2019-05-06T19:53:34.195Z,12.87
2019-05-06T19:56:02.831Z,14.20
2019-05-06T19:58:31.744Z,13.30
2019-05-06T20:01:02.401Z,12.27
2019-05-06T20:03:32.688Z,12.07
2019-05-06T20:06:02.525Z,13.63
2019-05-06T20:08:47.575Z,11.47
2019-05-06T20:11:23.062Z,12.43
2019-05-06T20:13:52.572Z,12.80
2019-05-06T20:16:22.899Z,12.70
2019-05-06T20:18:52.573Z,13.40
2019-05-06T20:21:23.062Z,14.27
2019-05-06T20:23:52.605Z,15.17
2019-05-06T20:26:21.966Z,16.60
2019-05-06T20:28:52.438Z,15.23
2019-05-06T20:31:22.458Z,14.67
2019-05-06T20:33:52.687Z,13.87
2019-05-06T20:36:22.411Z,15.73
2019-05-06T20:38:50.409Z,14.23
2019-05-06T20:41:18.763Z,13.07
2019-05-06T20:43:47.075Z,14.03
2019-05-06T20:46:15.355Z,14.63
2019-05-06T20:48:43.639Z,14.53
2019-05-06T20:51:12.435Z,14.63
2019-05-06T20:53:42.993Z,15.50
2019-05-06T20:56:12.408Z,12.90
2019-05-06T20:58:41.994Z,15.37
2019-05-06T21:01:10.489Z,15.50
2019-05-06T21:03:38.810Z,15.30
2019-05-06T21:06:07.117Z,16.03
2019-05-06T21:08:35.451Z,15.87
2019-05-06T21:11:04.171Z,16.27
2019-05-06T21:13:35.452Z,16.90
2019-05-06T21:16:02.519Z,15.30
2019-05-06T21:18:32.493Z,15.03
2019-05-06T21:21:02.078Z,15.60
2019-05-06T21:23:32.126Z,15.13
2019-05-06T21:26:02.983Z,14.63
2019-05-06T21:28:30.565Z,17.00
2019-05-06T21:30:58.867Z,16.03
2019-05-06T21:33:27.153Z,16.33
2019-05-06T21:35:55.429Z,14.80
2019-05-06T21:38:23.739Z,15.57
2019-05-06T21:40:52.566Z,15.37
2019-05-06T21:43:22.701Z,15.90
2019-05-06T21:45:51.113Z,15.70
2019-05-06T21:48:19.408Z,15.83
2019-05-06T21:50:47.665Z,16.33
2019-05-06T21:53:15.961Z,15.90
2019-05-06T21:55:44.264Z,15.43
2019-05-06T21:58:12.659Z,15.43
2019-05-06T22:00:43.390Z,15.30
2019-05-06T22:03:13.394Z,15.43
2019-05-06T22:05:41.971Z,16.10
2019-05-06T22:08:12.650Z,16.80
2019-05-06T22:10:42.160Z,16.30
2019-05-06T22:13:14.110Z,16.10
2019-05-06T22:15:42.094Z,17.13
2019-05-06T22:18:12.222Z,15.47
2019-05-06T22:20:58.172Z,17.23
2019-05-06T22:23:26.491Z,16.03
2019-05-06T22:26:08.304Z,17.13
2019-05-06T22:28:24.816Z,17.23
2019-05-06T22:30:53.173Z,16.17
2019-05-06T22:33:22.430Z,17.17
2019-05-06T22:35:52.038Z,16.93
2019-05-06T22:38:21.793Z,18.03
2019-05-06T22:40:50.170Z,17.30
2019-05-06T22:43:18.461Z,17.97
2019-05-06T22:45:46.720Z,16.43
2019-05-06T22:48:15.013Z,17.67
2019-05-06T22:50:43.273Z,18.30
2019-05-06T22:53:13.064Z,19.10
2019-05-06T22:55:42.792Z,18.83
2019-05-06T22:58:11.932Z,19.07
2019-05-06T23:00:42.540Z,19.37
2019-05-06T23:03:12.566Z,19.07
2019-05-06T23:05:42.317Z,19.60
2019-05-06T23:08:12.281Z,19.50
2019-05-06T23:10:42.296Z,19.67
2019-05-06T23:13:12.428Z,19.30
2019-05-06T23:15:42.111Z,20.10
2019-05-06T23:18:10.557Z,19.10
2019-05-06T23:20:38.877Z,21.03
2019-05-06T23:23:07.166Z,19.50
2019-05-06T23:25:35.569Z,20.80
2019-05-06T23:28:04.052Z,19.73
2019-05-06T23:30:33.458Z,20.23
2019-05-06T23:33:01.901Z,21.70
2019-05-06T23:35:30.233Z,21.33
2019-05-06T23:38:34.473Z,20.47
2019-05-06T23:41:38.753Z,21.27
2019-05-06T23:44:46.176Z,21.60
2019-05-06T23:47:49.925Z,22.57
2019-05-06T23:50:54.545Z,22.13
2019-05-06T23:53:59.069Z,19.77
2019-05-06T23:56:43.397Z,20.80
2019-05-06T23:59:14.363Z,20.17
